sensor_id;sensor_type;location;lat;lon;timestamp;P1;durP1;ratioP1;P2;durP2;ratioP2
50533;SDS011;60631;49.236;8.398;2022-09-09T00:03:20;1.17;;;1.05;;
50533;SDS011;60631;49.236;8.398;2022-09-09T00:06:30;2.63;;;1.20;;
50533;SDS011;60631;49.236;8.398;2022-09-09T00:09:46;1.67;;;1.30;;
50533;SDS011;60631;49.236;8.398;2022-09-09T00:22:17;2.92;;;1.60;;
50533;SDS011;60631;49.236;8.398;2022-09-09T00:25:19;3.40;;;2.08;;
50533;SDS011;60631;49.236;8.398;2022-09-09T00:28:27;2.47;;;1.50;;
50533;SDS011;60631;49.236;8.398;2022-09-09T00:31:32;4.47;;;1.70;;
50533;SDS011;60631;49.236;8.398;2022-09-09T00:34:33;5.22;;;1.70;;
50533;SDS011;60631;49.236;8.398;2022-09-09T00:37:35;2.67;;;1.60;;
50533;SDS011;60631;49.236;8.398;2022-09-09T00:40:37;3.38;;;1.60;;
50533;SDS011;60631;49.236;8.398;2022-09-09T00:43:41;3.80;;;2.05;;
50533;SDS011;60631;49.236;8.398;2022-09-09T00:46:59;5.70;;;1.63;;
50533;SDS011;60631;49.236;8.398;2022-09-09T00:50:31;5.22;;;2.65;;
50533;SDS011;60631;49.236;8.398;2022-09-09T00:57:14;3.63;;;2.08;;
50533;SDS011;60631;49.236;8.398;2022-09-09T01:00:41;4.10;;;1.98;;
50533;SDS011;60631;49.236;8.398;2022-09-09T01:03:53;4.28;;;1.95;;
50533;SDS011;60631;49.236;8.398;2022-09-09T01:06:57;4.90;;;1.60;;
50533;SDS011;60631;49.236;8.398;2022-09-09T01:10:26;3.28;;;1.50;;
50533;SDS011;60631;49.236;8.398;2022-09-09T01:13:33;1.98;;;1.30;;
50533;SDS011;60631;49.236;8.398;2022-09-09T01:16:35;4.40;;;1.40;;
50533;SDS011;60631;49.236;8.398;2022-09-09T01:23:03;3.03;;;1.25;;
50533;SDS011;60631;49.236;8.398;2022-09-09T01:29:13;3.97;;;1.20;;
50533;SDS011;60631;49.236;8.398;2022-09-09T01:35:55;3.83;;;1.60;;
50533;SDS011;60631;49.236;8.398;2022-09-09T01:39:00;2.10;;;1.25;;
50533;SDS011;60631;49.236;8.398;2022-09-09T01:42:01;1.80;;;1.10;;
50533;SDS011;60631;49.236;8.398;2022-09-09T01:45:04;2.70;;;1.13;;
50533;SDS011;60631;49.236;8.398;2022-09-09T01:48:05;3.15;;;1.40;;
50533;SDS011;60631;49.236;8.398;2022-09-09T01:51:07;3.83;;;1.17;;
50533;SDS011;60631;49.236;8.398;2022-09-09T01:54:10;3.15;;;1.23;;
50533;SDS011;60631;49.236;8.398;2022-09-09T01:57:15;3.78;;;1.35;;
50533;SDS011;60631;49.236;8.398;2022-09-09T02:00:19;4.22;;;1.38;;
50533;SDS011;60631;49.236;8.398;2022-09-09T02:03:25;2.58;;;1.20;;
50533;SDS011;60631;49.236;8.398;2022-09-09T02:06:35;5.70;;;1.40;;
50533;SDS011;60631;49.236;8.398;2022-09-09T02:09:39;3.28;;;1.27;;
50533;SDS011;60631;49.236;8.398;2022-09-09T02:12:44;3.30;;;1.43;;
50533;SDS011;60631;49.236;8.398;2022-09-09T02:19:11;2.88;;;1.30;;
50533;SDS011;60631;49.236;8.398;2022-09-09T02:22:16;2.90;;;1.30;;
50533;SDS011;60631;49.236;8.398;2022-09-09T02:25:19;3.28;;;1.38;;
50533;SDS011;60631;49.236;8.398;2022-09-09T02:28:22;1.85;;;1.20;;
50533;SDS011;60631;49.236;8.398;2022-09-09T02:31:25;2.30;;;1.15;;
50533;SDS011;60631;49.236;8.398;2022-09-09T02:34:27;3.17;;;1.20;;
50533;SDS011;60631;49.236;8.398;2022-09-09T02:37:30;3.00;;;1.52;;
50533;SDS011;60631;49.236;8.398;2022-09-09T02:40:35;2.45;;;1.13;;
50533;SDS011;60631;49.236;8.398;2022-09-09T02:43:36;1.70;;;1.02;;
50533;SDS011;60631;49.236;8.398;2022-09-09T02:53:15;2.85;;;1.10;;
50533;SDS011;60631;49.236;8.398;2022-09-09T02:56:21;1.73;;;0.88;;
50533;SDS011;60631;49.236;8.398;2022-09-09T02:59:24;3.10;;;1.00;;
50533;SDS011;60631;49.236;8.398;2022-09-09T03:02:25;2.58;;;0.93;;
50533;SDS011;60631;49.236;8.398;2022-09-09T03:05:26;2.50;;;1.00;;
50533;SDS011;60631;49.236;8.398;2022-09-09T03:08:28;3.03;;;1.00;;
50533;SDS011;60631;49.236;8.398;2022-09-09T03:11:29;4.28;;;1.10;;
50533;SDS011;60631;49.236;8.398;2022-09-09T03:14:30;2.35;;;0.88;;
50533;SDS011;60631;49.236;8.398;2022-09-09T03:17:31;1.63;;;0.80;;
50533;SDS011;60631;49.236;8.398;2022-09-09T03:20:32;3.15;;;0.95;;
50533;SDS011;60631;49.236;8.398;2022-09-09T03:23:33;3.10;;;1.00;;
50533;SDS011;60631;49.236;8.398;2022-09-09T03:26:34;3.65;;;1.30;;
50533;SDS011;60631;49.236;8.398;2022-09-09T03:29:36;2.63;;;0.85;;
50533;SDS011;60631;49.236;8.398;2022-09-09T03:32:37;2.53;;;0.95;;
50533;SDS011;60631;49.236;8.398;2022-09-09T03:35:38;2.03;;;0.80;;
50533;SDS011;60631;49.236;8.398;2022-09-09T03:38:40;2.03;;;0.70;;
50533;SDS011;60631;49.236;8.398;2022-09-09T03:41:41;1.88;;;1.00;;
50533;SDS011;60631;49.236;8.398;2022-09-09T03:44:42;2.00;;;0.90;;
50533;SDS011;60631;49.236;8.398;2022-09-09T03:47:46;2.75;;;1.00;;
50533;SDS011;60631;49.236;8.398;2022-09-09T03:50:48;1.50;;;0.70;;
50533;SDS011;60631;49.236;8.398;2022-09-09T03:53:51;1.95;;;0.73;;
50533;SDS011;60631;49.236;8.398;2022-09-09T03:56:52;2.70;;;0.75;;
50533;SDS011;60631;49.236;8.398;2022-09-09T03:59:54;1.15;;;0.70;;
50533;SDS011;60631;49.236;8.398;2022-09-09T04:02:55;2.22;;;0.63;;
50533;SDS011;60631;49.236;8.398;2022-09-09T04:05:58;2.85;;;0.80;;
50533;SDS011;60631;49.236;8.398;2022-09-09T04:09:00;3.25;;;1.15;;
50533;SDS011;60631;49.236;8.398;2022-09-09T04:12:03;2.65;;;0.90;;
50533;SDS011;60631;49.236;8.398;2022-09-09T04:15:05;1.23;;;0.80;;
50533;SDS011;60631;49.236;8.398;2022-09-09T04:18:06;3.08;;;0.93;;
50533;SDS011;60631;49.236;8.398;2022-09-09T04:21:08;1.08;;;0.70;;
50533;SDS011;60631;49.236;8.398;2022-09-09T04:24:10;2.83;;;0.80;;
50533;SDS011;60631;49.236;8.398;2022-09-09T04:27:11;2.83;;;0.80;;
50533;SDS011;60631;49.236;8.398;2022-09-09T04:30:12;0.95;;;0.70;;
50533;SDS011;60631;49.236;8.398;2022-09-09T04:33:13;2.42;;;1.13;;
50533;SDS011;60631;49.236;8.398;2022-09-09T04:36:15;1.50;;;0.80;;
50533;SDS011;60631;49.236;8.398;2022-09-09T04:39:16;1.33;;;0.90;;
50533;SDS011;60631;49.236;8.398;2022-09-09T04:42:17;1.20;;;0.88;;
50533;SDS011;60631;49.236;8.398;2022-09-09T04:45:20;1.38;;;0.75;;
50533;SDS011;60631;49.236;8.398;2022-09-09T04:48:21;1.33;;;0.70;;
50533;SDS011;60631;49.236;8.398;2022-09-09T04:51:22;2.38;;;1.02;;
50533;SDS011;60631;49.236;8.398;2022-09-09T04:54:23;2.65;;;0.75;;
50533;SDS011;60631;49.236;8.398;2022-09-09T04:57:24;1.85;;;0.90;;
50533;SDS011;60631;49.236;8.398;2022-09-09T05:00:25;2.13;;;0.90;;
50533;SDS011;60631;49.236;8.398;2022-09-09T05:03:26;1.95;;;0.90;;
50533;SDS011;60631;49.236;8.398;2022-09-09T05:06:27;1.95;;;0.80;;
50533;SDS011;60631;49.236;8.398;2022-09-09T05:09:29;1.10;;;0.80;;
50533;SDS011;60631;49.236;8.398;2022-09-09T05:12:31;1.70;;;0.88;;
50533;SDS011;60631;49.236;8.398;2022-09-09T05:15:35;2.60;;;1.10;;
50533;SDS011;60631;49.236;8.398;2022-09-09T05:18:37;2.70;;;1.00;;
50533;SDS011;60631;49.236;8.398;2022-09-09T05:21:39;1.92;;;0.85;;
50533;SDS011;60631;49.236;8.398;2022-09-09T05:24:40;2.05;;;1.00;;
50533;SDS011;60631;49.236;8.398;2022-09-09T05:27:41;1.73;;;0.93;;
50533;SDS011;60631;49.236;8.398;2022-09-09T05:30:42;3.88;;;1.10;;
50533;SDS011;60631;49.236;8.398;2022-09-09T05:33:44;1.75;;;0.90;;
50533;SDS011;60631;49.236;8.398;2022-09-09T05:36:46;2.03;;;0.90;;
50533;SDS011;60631;49.236;8.398;2022-09-09T05:39:48;1.40;;;0.90;;
50533;SDS011;60631;49.236;8.398;2022-09-09T05:42:49;1.98;;;0.90;;
50533;SDS011;60631;49.236;8.398;2022-09-09T05:46:03;2.13;;;1.05;;
50533;SDS011;60631;49.236;8.398;2022-09-09T05:49:08;2.00;;;0.90;;
50533;SDS011;60631;49.236;8.398;2022-09-09T05:52:09;2.05;;;0.90;;
50533;SDS011;60631;49.236;8.398;2022-09-09T05:55:10;2.33;;;0.90;;
50533;SDS011;60631;49.236;8.398;2022-09-09T05:58:11;1.83;;;0.90;;
50533;SDS011;60631;49.236;8.398;2022-09-09T06:01:13;1.92;;;0.98;;
50533;SDS011;60631;49.236;8.398;2022-09-09T06:04:15;1.30;;;0.75;;
50533;SDS011;60631;49.236;8.398;2022-09-09T06:07:16;1.13;;;0.82;;
50533;SDS011;60631;49.236;8.398;2022-09-09T06:10:18;3.55;;;0.80;;
50533;SDS011;60631;49.236;8.398;2022-09-09T06:13:19;1.45;;;0.88;;
50533;SDS011;60631;49.236;8.398;2022-09-09T06:16:21;1.98;;;1.10;;
50533;SDS011;60631;49.236;8.398;2022-09-09T06:19:24;2.33;;;1.00;;
50533;SDS011;60631;49.236;8.398;2022-09-09T06:22:26;1.48;;;0.80;;
50533;SDS011;60631;49.236;8.398;2022-09-09T06:25:27;2.15;;;0.80;;
50533;SDS011;60631;49.236;8.398;2022-09-09T06:28:29;1.95;;;0.80;;
50533;SDS011;60631;49.236;8.398;2022-09-09T06:31:31;2.00;;;0.95;;
50533;SDS011;60631;49.236;8.398;2022-09-09T06:34:34;2.33;;;0.90;;
50533;SDS011;60631;49.236;8.398;2022-09-09T06:37:37;1.92;;;0.80;;
50533;SDS011;60631;49.236;8.398;2022-09-09T06:40:38;3.25;;;0.93;;
50533;SDS011;60631;49.236;8.398;2022-09-09T06:43:40;2.65;;;0.90;;
50533;SDS011;60631;49.236;8.398;2022-09-09T06:46:41;2.33;;;1.00;;
50533;SDS011;60631;49.236;8.398;2022-09-09T06:49:42;2.95;;;0.98;;
50533;SDS011;60631;49.236;8.398;2022-09-09T06:52:45;4.03;;;0.73;;
50533;SDS011;60631;49.236;8.398;2022-09-09T06:55:48;2.28;;;0.90;;
50533;SDS011;60631;49.236;8.398;2022-09-09T06:58:52;2.03;;;0.80;;
50533;SDS011;60631;49.236;8.398;2022-09-09T07:01:55;3.92;;;0.85;;
50533;SDS011;60631;49.236;8.398;2022-09-09T07:04:56;2.78;;;0.70;;
50533;SDS011;60631;49.236;8.398;2022-09-09T07:07:59;1.88;;;0.60;;
50533;SDS011;60631;49.236;8.398;2022-09-09T07:11:03;3.58;;;0.90;;
50533;SDS011;60631;49.236;8.398;2022-09-09T07:14:05;2.20;;;0.73;;
50533;SDS011;60631;49.236;8.398;2022-09-09T07:17:06;2.63;;;0.82;;
50533;SDS011;60631;49.236;8.398;2022-09-09T07:20:07;3.60;;;1.10;;
50533;SDS011;60631;49.236;8.398;2022-09-09T07:23:08;4.57;;;1.00;;
50533;SDS011;60631;49.236;8.398;2022-09-09T07:29:11;1.90;;;0.70;;
50533;SDS011;60631;49.236;8.398;2022-09-09T07:32:14;4.50;;;1.00;;
50533;SDS011;60631;49.236;8.398;2022-09-09T07:35:15;3.80;;;0.88;;
50533;SDS011;60631;49.236;8.398;2022-09-09T07:38:16;2.20;;;0.80;;
50533;SDS011;60631;49.236;8.398;2022-09-09T07:41:19;1.38;;;0.70;;
50533;SDS011;60631;49.236;8.398;2022-09-09T07:44:23;2.70;;;0.88;;
50533;SDS011;60631;49.236;8.398;2022-09-09T07:47:27;3.85;;;0.90;;
50533;SDS011;60631;49.236;8.398;2022-09-09T07:50:29;3.20;;;0.73;;
50533;SDS011;60631;49.236;8.398;2022-09-09T07:53:30;3.13;;;0.80;;
50533;SDS011;60631;49.236;8.398;2022-09-09T07:56:31;1.98;;;0.73;;
50533;SDS011;60631;49.236;8.398;2022-09-09T07:59:33;2.20;;;0.93;;
50533;SDS011;60631;49.236;8.398;2022-09-09T08:02:34;1.67;;;0.70;;
50533;SDS011;60631;49.236;8.398;2022-09-09T08:05:36;2.38;;;0.73;;
50533;SDS011;60631;49.236;8.398;2022-09-09T08:08:40;2.13;;;0.77;;
50533;SDS011;60631;49.236;8.398;2022-09-09T08:11:42;4.00;;;0.95;;
50533;SDS011;60631;49.236;8.398;2022-09-09T08:14:44;2.63;;;0.93;;
50533;SDS011;60631;49.236;8.398;2022-09-09T08:17:45;3.00;;;0.95;;
50533;SDS011;60631;49.236;8.398;2022-09-09T08:20:46;4.45;;;0.90;;
50533;SDS011;60631;49.236;8.398;2022-09-09T08:23:47;2.83;;;1.00;;
50533;SDS011;60631;49.236;8.398;2022-09-09T08:26:49;5.53;;;1.23;;
50533;SDS011;60631;49.236;8.398;2022-09-09T08:29:50;1.70;;;1.00;;
50533;SDS011;60631;49.236;8.398;2022-09-09T08:32:52;2.80;;;0.90;;
50533;SDS011;60631;49.236;8.398;2022-09-09T08:35:53;2.40;;;1.00;;
50533;SDS011;60631;49.236;8.398;2022-09-09T08:38:54;2.45;;;0.80;;
50533;SDS011;60631;49.236;8.398;2022-09-09T08:46:10;3.83;;;1.30;;
50533;SDS011;60631;49.236;8.398;2022-09-09T08:56:01;3.58;;;1.20;;
50533;SDS011;60631;49.236;8.398;2022-09-09T08:59:05;3.55;;;1.02;;
50533;SDS011;60631;49.236;8.398;2022-09-09T09:05:26;1.67;;;0.98;;
50533;SDS011;60631;49.236;8.398;2022-09-09T09:12:01;2.78;;;1.10;;
50533;SDS011;60631;49.236;8.398;2022-09-09T09:15:05;3.65;;;1.08;;
50533;SDS011;60631;49.236;8.398;2022-09-09T09:18:16;2.50;;;1.00;;
50533;SDS011;60631;49.236;8.398;2022-09-09T09:21:24;2.25;;;1.02;;
50533;SDS011;60631;49.236;8.398;2022-09-09T09:31:19;2.03;;;1.00;;
50533;SDS011;60631;49.236;8.398;2022-09-09T09:34:20;4.25;;;1.15;;
50533;SDS011;60631;49.236;8.398;2022-09-09T09:37:26;3.28;;;1.10;;
50533;SDS011;60631;49.236;8.398;2022-09-09T09:40:29;2.20;;;0.90;;
50533;SDS011;60631;49.236;8.398;2022-09-09T09:43:31;4.07;;;1.00;;
50533;SDS011;60631;49.236;8.398;2022-09-09T09:46:36;3.00;;;1.30;;
50533;SDS011;60631;49.236;8.398;2022-09-09T09:49:37;3.63;;;1.10;;
50533;SDS011;60631;49.236;8.398;2022-09-09T09:52:38;4.63;;;1.10;;
50533;SDS011;60631;49.236;8.398;2022-09-09T09:55:46;1.63;;;0.80;;
50533;SDS011;60631;49.236;8.398;2022-09-09T09:58:51;4.72;;;1.00;;
50533;SDS011;60631;49.236;8.398;2022-09-09T10:01:53;4.50;;;1.27;;
50533;SDS011;60631;49.236;8.398;2022-09-09T10:05:04;3.45;;;1.20;;
50533;SDS011;60631;49.236;8.398;2022-09-09T10:08:23;1.90;;;1.15;;
50533;SDS011;60631;49.236;8.398;2022-09-09T10:11:53;3.08;;;1.08;;
50533;SDS011;60631;49.236;8.398;2022-09-09T10:38:45;1.92;;;1.13;;
50533;SDS011;60631;49.236;8.398;2022-09-09T10:41:54;2.83;;;1.05;;
50533;SDS011;60631;49.236;8.398;2022-09-09T10:45:23;3.33;;;0.98;;
50533;SDS011;60631;49.236;8.398;2022-09-09T10:55:14;2.55;;;1.00;;
50533;SDS011;60631;49.236;8.398;2022-09-09T10:58:23;1.65;;;0.80;;
50533;SDS011;60631;49.236;8.398;2022-09-09T11:01:29;4.28;;;0.90;;
50533;SDS011;60631;49.236;8.398;2022-09-09T11:15:15;3.70;;;0.80;;
50533;SDS011;60631;49.236;8.398;2022-09-09T11:17:56;2.95;;;1.02;;
50533;SDS011;60631;49.236;8.398;2022-09-09T11:21:00;2.45;;;0.82;;
50533;SDS011;60631;49.236;8.398;2022-09-09T11:24:04;3.30;;;0.90;;
50533;SDS011;60631;49.236;8.398;2022-09-09T11:27:15;2.42;;;0.70;;
50533;SDS011;60631;49.236;8.398;2022-09-09T11:30:29;4.13;;;0.93;;
50533;SDS011;60631;49.236;8.398;2022-09-09T11:37:40;3.13;;;1.00;;
50533;SDS011;60631;49.236;8.398;2022-09-09T11:41:03;2.50;;;0.88;;
50533;SDS011;60631;49.236;8.398;2022-09-09T11:44:11;4.32;;;1.00;;
50533;SDS011;60631;49.236;8.398;2022-09-09T11:47:19;2.08;;;0.98;;
50533;SDS011;60631;49.236;8.398;2022-09-09T11:50:37;3.45;;;1.00;;
50533;SDS011;60631;49.236;8.398;2022-09-09T11:53:48;3.70;;;1.02;;
50533;SDS011;60631;49.236;8.398;2022-09-09T11:56:53;4.95;;;1.20;;
50533;SDS011;60631;49.236;8.398;2022-09-09T11:59:54;3.92;;;1.00;;
50533;SDS011;60631;49.236;8.398;2022-09-09T12:02:56;6.80;;;1.05;;
50533;SDS011;60631;49.236;8.398;2022-09-09T12:05:57;2.30;;;0.90;;
50533;SDS011;60631;49.236;8.398;2022-09-09T12:09:18;1.88;;;0.90;;
50533;SDS011;60631;49.236;8.398;2022-09-09T12:15:22;3.50;;;1.10;;
50533;SDS011;60631;49.236;8.398;2022-09-09T12:18:34;3.65;;;1.13;;
50533;SDS011;60631;49.236;8.398;2022-09-09T12:24:50;2.45;;;0.75;;
50533;SDS011;60631;49.236;8.398;2022-09-09T12:37:55;1.17;;;0.70;;
50533;SDS011;60631;49.236;8.398;2022-09-09T12:40:58;1.77;;;0.80;;
50533;SDS011;60631;49.236;8.398;2022-09-09T12:44:06;2.15;;;1.02;;
50533;SDS011;60631;49.236;8.398;2022-09-09T12:47:09;3.22;;;1.10;;
50533;SDS011;60631;49.236;8.398;2022-09-09T12:50:33;2.63;;;1.23;;
50533;SDS011;60631;49.236;8.398;2022-09-09T12:53:36;3.92;;;1.60;;
50533;SDS011;60631;49.236;8.398;2022-09-09T12:56:37;3.03;;;0.90;;
50533;SDS011;60631;49.236;8.398;2022-09-09T12:59:41;3.10;;;1.15;;
50533;SDS011;60631;49.236;8.398;2022-09-09T13:02:52;7.30;;;1.40;;
50533;SDS011;60631;49.236;8.398;2022-09-09T13:05:58;3.75;;;1.30;;
50533;SDS011;60631;49.236;8.398;2022-09-09T13:09:02;3.67;;;0.90;;
50533;SDS011;60631;49.236;8.398;2022-09-09T13:12:04;2.17;;;0.60;;
50533;SDS011;60631;49.236;8.398;2022-09-09T13:15:26;3.17;;;0.80;;
50533;SDS011;60631;49.236;8.398;2022-09-09T13:18:33;2.20;;;0.63;;
50533;SDS011;60631;49.236;8.398;2022-09-09T13:21:36;2.55;;;0.70;;
50533;SDS011;60631;49.236;8.398;2022-09-09T13:24:38;1.85;;;0.65;;
50533;SDS011;60631;49.236;8.398;2022-09-09T13:27:51;1.95;;;0.90;;
50533;SDS011;60631;49.236;8.398;2022-09-09T13:31:04;3.20;;;0.60;;
50533;SDS011;60631;49.236;8.398;2022-09-09T13:34:14;3.30;;;0.90;;
50533;SDS011;60631;49.236;8.398;2022-09-09T13:37:34;1.58;;;0.90;;
50533;SDS011;60631;49.236;8.398;2022-09-09T13:40:37;1.38;;;0.70;;
50533;SDS011;60631;49.236;8.398;2022-09-09T13:43:45;2.00;;;0.63;;
50533;SDS011;60631;49.236;8.398;2022-09-09T13:46:47;2.05;;;0.60;;
50533;SDS011;60631;49.236;8.398;2022-09-09T13:49:48;2.35;;;0.60;;
50533;SDS011;60631;49.236;8.398;2022-09-09T13:52:50;1.88;;;0.70;;
50533;SDS011;60631;49.236;8.398;2022-09-09T13:58:54;2.38;;;0.50;;
50533;SDS011;60631;49.236;8.398;2022-09-09T14:01:55;2.38;;;0.60;;
50533;SDS011;60631;49.236;8.398;2022-09-09T14:04:57;0.85;;;0.43;;
50533;SDS011;60631;49.236;8.398;2022-09-09T14:07:58;1.23;;;0.50;;
50533;SDS011;60631;49.236;8.398;2022-09-09T14:11:01;1.40;;;0.63;;
50533;SDS011;60631;49.236;8.398;2022-09-09T14:14:02;2.58;;;0.40;;
50533;SDS011;60631;49.236;8.398;2022-09-09T14:17:03;1.90;;;0.50;;
50533;SDS011;60631;49.236;8.398;2022-09-09T14:20:04;1.23;;;0.50;;
50533;SDS011;60631;49.236;8.398;2022-09-09T14:23:10;2.20;;;0.50;;
50533;SDS011;60631;49.236;8.398;2022-09-09T14:26:12;1.00;;;0.90;;
50533;SDS011;60631;49.236;8.398;2022-09-09T14:29:13;1.27;;;0.57;;
50533;SDS011;60631;49.236;8.398;2022-09-09T14:32:14;1.65;;;0.50;;
50533;SDS011;60631;49.236;8.398;2022-09-09T14:35:15;1.75;;;0.60;;
50533;SDS011;60631;49.236;8.398;2022-09-09T14:38:18;2.30;;;0.50;;
50533;SDS011;60631;49.236;8.398;2022-09-09T14:41:20;3.25;;;0.65;;
50533;SDS011;60631;49.236;8.398;2022-09-09T14:44:23;1.92;;;0.75;;
50533;SDS011;60631;49.236;8.398;2022-09-09T14:47:24;2.67;;;0.70;;
50533;SDS011;60631;49.236;8.398;2022-09-09T14:50:26;1.00;;;0.47;;
50533;SDS011;60631;49.236;8.398;2022-09-09T14:53:27;2.92;;;0.57;;
50533;SDS011;60631;49.236;8.398;2022-09-09T14:56:31;1.25;;;0.55;;
50533;SDS011;60631;49.236;8.398;2022-09-09T14:59:35;1.30;;;0.50;;
50533;SDS011;60631;49.236;8.398;2022-09-09T15:02:36;1.70;;;0.65;;
50533;SDS011;60631;49.236;8.398;2022-09-09T15:05:37;1.67;;;0.60;;
50533;SDS011;60631;49.236;8.398;2022-09-09T15:08:39;1.13;;;0.40;;
50533;SDS011;60631;49.236;8.398;2022-09-09T15:11:41;2.28;;;0.60;;
50533;SDS011;60631;49.236;8.398;2022-09-09T15:14:42;2.00;;;0.70;;
50533;SDS011;60631;49.236;8.398;2022-09-09T15:17:43;1.35;;;0.70;;
50533;SDS011;60631;49.236;8.398;2022-09-09T15:20:45;2.97;;;0.75;;
50533;SDS011;60631;49.236;8.398;2022-09-09T15:23:47;2.95;;;0.90;;
50533;SDS011;60631;49.236;8.398;2022-09-09T15:26:51;1.67;;;0.90;;
50533;SDS011;60631;49.236;8.398;2022-09-09T15:29:52;2.55;;;0.77;;
50533;SDS011;60631;49.236;8.398;2022-09-09T15:32:53;2.53;;;0.80;;
50533;SDS011;60631;49.236;8.398;2022-09-09T15:35:55;2.33;;;0.70;;
50533;SDS011;60631;49.236;8.398;2022-09-09T15:38:56;1.48;;;0.52;;
50533;SDS011;60631;49.236;8.398;2022-09-09T15:41:57;1.58;;;0.73;;
50533;SDS011;60631;49.236;8.398;2022-09-09T15:44:58;1.45;;;0.50;;
50533;SDS011;60631;49.236;8.398;2022-09-09T15:48:00;0.75;;;0.55;;
50533;SDS011;60631;49.236;8.398;2022-09-09T15:51:02;1.55;;;0.60;;
50533;SDS011;60631;49.236;8.398;2022-09-09T15:54:04;1.92;;;0.70;;
50533;SDS011;60631;49.236;8.398;2022-09-09T15:57:06;1.33;;;0.50;;
50533;SDS011;60631;49.236;8.398;2022-09-09T16:00:08;1.88;;;0.60;;
50533;SDS011;60631;49.236;8.398;2022-09-09T16:03:12;2.40;;;0.70;;
50533;SDS011;60631;49.236;8.398;2022-09-09T16:06:14;1.95;;;0.57;;
50533;SDS011;60631;49.236;8.398;2022-09-09T16:09:15;0.63;;;0.47;;
50533;SDS011;60631;49.236;8.398;2022-09-09T16:12:16;1.35;;;0.50;;
50533;SDS011;60631;49.236;8.398;2022-09-09T16:15:17;1.63;;;0.65;;
50533;SDS011;60631;49.236;8.398;2022-09-09T16:18:20;2.27;;;0.60;;
50533;SDS011;60631;49.236;8.398;2022-09-09T16:21:28;3.22;;;0.77;;
50533;SDS011;60631;49.236;8.398;2022-09-09T16:24:30;1.77;;;0.70;;
50533;SDS011;60631;49.236;8.398;2022-09-09T16:27:31;2.33;;;0.60;;
50533;SDS011;60631;49.236;8.398;2022-09-09T16:30:32;2.42;;;0.82;;
50533;SDS011;60631;49.236;8.398;2022-09-09T16:33:33;1.88;;;0.60;;
50533;SDS011;60631;49.236;8.398;2022-09-09T16:36:35;3.15;;;0.80;;
50533;SDS011;60631;49.236;8.398;2022-09-09T16:39:37;2.63;;;0.70;;
50533;SDS011;60631;49.236;8.398;2022-09-09T16:42:38;3.00;;;0.73;;
50533;SDS011;60631;49.236;8.398;2022-09-09T16:45:43;1.10;;;0.47;;
50533;SDS011;60631;49.236;8.398;2022-09-09T16:48:44;2.72;;;0.70;;
50533;SDS011;60631;49.236;8.398;2022-09-09T16:51:47;4.18;;;0.60;;
50533;SDS011;60631;49.236;8.398;2022-09-09T16:54:49;2.03;;;0.40;;
50533;SDS011;60631;49.236;8.398;2022-09-09T16:57:50;2.30;;;0.70;;
50533;SDS011;60631;49.236;8.398;2022-09-09T17:00:57;2.42;;;0.73;;
50533;SDS011;60631;49.236;8.398;2022-09-09T17:03:59;3.47;;;1.67;;
50533;SDS011;60631;49.236;8.398;2022-09-09T17:07:02;1.65;;;1.25;;
50533;SDS011;60631;49.236;8.398;2022-09-09T17:10:03;1.90;;;1.00;;
50533;SDS011;60631;49.236;8.398;2022-09-09T17:13:04;3.13;;;0.77;;
50533;SDS011;60631;49.236;8.398;2022-09-09T17:16:05;3.47;;;0.70;;
50533;SDS011;60631;49.236;8.398;2022-09-09T17:19:06;1.88;;;0.73;;
50533;SDS011;60631;49.236;8.398;2022-09-09T17:22:09;3.10;;;0.80;;
50533;SDS011;60631;49.236;8.398;2022-09-09T17:25:10;2.20;;;0.70;;
50533;SDS011;60631;49.236;8.398;2022-09-09T17:28:11;1.02;;;0.90;;
50533;SDS011;60631;49.236;8.398;2022-09-09T17:31:14;1.73;;;0.70;;
50533;SDS011;60631;49.236;8.398;2022-09-09T17:34:16;0.95;;;0.40;;
50533;SDS011;60631;49.236;8.398;2022-09-09T17:37:17;1.20;;;0.60;;
50533;SDS011;60631;49.236;8.398;2022-09-09T17:40:18;1.42;;;0.80;;
50533;SDS011;60631;49.236;8.398;2022-09-09T17:43:20;2.97;;;0.80;;
50533;SDS011;60631;49.236;8.398;2022-09-09T17:46:26;2.65;;;0.70;;
50533;SDS011;60631;49.236;8.398;2022-09-09T17:49:29;1.98;;;0.57;;
50533;SDS011;60631;49.236;8.398;2022-09-09T17:52:30;1.77;;;0.60;;
50533;SDS011;60631;49.236;8.398;2022-09-09T17:55:32;1.23;;;0.60;;
50533;SDS011;60631;49.236;8.398;2022-09-09T17:58:33;2.15;;;0.70;;
50533;SDS011;60631;49.236;8.398;2022-09-09T18:01:36;2.17;;;0.75;;
50533;SDS011;60631;49.236;8.398;2022-09-09T18:04:39;1.35;;;0.80;;
50533;SDS011;60631;49.236;8.398;2022-09-09T18:07:40;3.58;;;0.70;;
50533;SDS011;60631;49.236;8.398;2022-09-09T18:10:41;3.38;;;0.80;;
50533;SDS011;60631;49.236;8.398;2022-09-09T18:13:51;3.23;;;1.10;;
50533;SDS011;60631;49.236;8.398;2022-09-09T18:16:54;2.55;;;1.20;;
50533;SDS011;60631;49.236;8.398;2022-09-09T18:19:55;2.95;;;1.23;;
50533;SDS011;60631;49.236;8.398;2022-09-09T18:22:56;2.47;;;1.20;;
50533;SDS011;60631;49.236;8.398;2022-09-09T18:25:57;2.17;;;0.98;;
50533;SDS011;60631;49.236;8.398;2022-09-09T18:29:00;2.30;;;1.13;;
50533;SDS011;60631;49.236;8.398;2022-09-09T18:32:03;2.17;;;0.90;;
50533;SDS011;60631;49.236;8.398;2022-09-09T18:35:04;1.13;;;0.70;;
50533;SDS011;60631;49.236;8.398;2022-09-09T18:38:05;1.67;;;0.80;;
50533;SDS011;60631;49.236;8.398;2022-09-09T18:44:19;1.83;;;0.73;;
50533;SDS011;60631;49.236;8.398;2022-09-09T18:47:25;0.75;;;0.65;;
50533;SDS011;60631;49.236;8.398;2022-09-09T18:50:26;3.35;;;1.02;;
50533;SDS011;60631;49.236;8.398;2022-09-09T18:53:27;1.65;;;0.80;;
50533;SDS011;60631;49.236;8.398;2022-09-09T18:56:28;1.75;;;0.80;;
50533;SDS011;60631;49.236;8.398;2022-09-09T18:59:29;0.80;;;0.80;;
50533;SDS011;60631;49.236;8.398;2022-09-09T19:02:30;2.85;;;1.00;;
50533;SDS011;60631;49.236;8.398;2022-09-09T19:05:32;3.28;;;1.00;;
50533;SDS011;60631;49.236;8.398;2022-09-09T19:08:37;4.30;;;0.95;;
50533;SDS011;60631;49.236;8.398;2022-09-09T19:11:42;5.03;;;0.95;;
50533;SDS011;60631;49.236;8.398;2022-09-09T19:14:43;2.20;;;0.90;;
50533;SDS011;60631;49.236;8.398;2022-09-09T19:17:45;1.02;;;0.80;;
50533;SDS011;60631;49.236;8.398;2022-09-09T19:20:46;1.85;;;0.70;;
50533;SDS011;60631;49.236;8.398;2022-09-09T19:24:33;1.00;;;0.60;;
50533;SDS011;60631;49.236;8.398;2022-09-09T19:27:12;1.58;;;0.68;;
50533;SDS011;60631;49.236;8.398;2022-09-09T19:30:13;3.53;;;1.00;;
50533;SDS011;60631;49.236;8.398;2022-09-09T19:33:14;1.77;;;0.70;;
50533;SDS011;60631;49.236;8.398;2022-09-09T19:36:16;1.52;;;0.75;;
50533;SDS011;60631;49.236;8.398;2022-09-09T19:39:17;2.90;;;0.80;;
50533;SDS011;60631;49.236;8.398;2022-09-09T19:42:18;1.58;;;0.80;;
50533;SDS011;60631;49.236;8.398;2022-09-09T19:45:19;1.77;;;1.10;;
50533;SDS011;60631;49.236;8.398;2022-09-09T19:48:21;3.55;;;0.70;;
50533;SDS011;60631;49.236;8.398;2022-09-09T19:51:22;2.67;;;1.00;;
50533;SDS011;60631;49.236;8.398;2022-09-09T19:54:25;1.75;;;0.90;;
50533;SDS011;60631;49.236;8.398;2022-09-09T19:57:26;2.65;;;1.00;;
50533;SDS011;60631;49.236;8.398;2022-09-09T20:00:29;1.35;;;0.80;;
50533;SDS011;60631;49.236;8.398;2022-09-09T20:03:31;1.60;;;0.80;;
50533;SDS011;60631;49.236;8.398;2022-09-09T20:06:33;2.85;;;1.00;;
50533;SDS011;60631;49.236;8.398;2022-09-09T20:09:36;2.83;;;0.90;;
50533;SDS011;60631;49.236;8.398;2022-09-09T20:12:37;2.80;;;0.90;;
50533;SDS011;60631;49.236;8.398;2022-09-09T20:15:38;3.13;;;0.93;;
50533;SDS011;60631;49.236;8.398;2022-09-09T20:18:40;2.38;;;1.10;;
50533;SDS011;60631;49.236;8.398;2022-09-09T20:21:44;1.65;;;0.85;;
50533;SDS011;60631;49.236;8.398;2022-09-09T20:24:48;2.63;;;0.95;;
50533;SDS011;60631;49.236;8.398;2022-09-09T20:27:50;4.30;;;1.38;;
50533;SDS011;60631;49.236;8.398;2022-09-09T20:30:51;2.65;;;1.20;;
50533;SDS011;60631;49.236;8.398;2022-09-09T20:33:53;6.57;;;1.63;;
50533;SDS011;60631;49.236;8.398;2022-09-09T20:36:55;4.57;;;1.80;;